createdAt,value
2019-03-23T00:00:57.196Z,93.79
2019-03-23T00:01:57.382Z,93.70
2019-03-23T00:02:57.566Z,93.75
2019-03-23T00:03:58.495Z,93.84
2019-03-23T00:04:57.929Z,93.79
2019-03-23T00:05:58.927Z,94.08
2019-03-23T00:06:58.300Z,93.65
2019-03-23T00:07:58.495Z,93.94
2019-03-23T00:08:58.669Z,93.94
2019-03-23T00:09:58.867Z,94.03
2019-03-23T00:10:59.038Z,93.84
2019-03-23T00:11:59.231Z,93.84
2019-03-23T00:12:59.420Z,94.60
2019-03-23T00:13:59.598Z,94.60
2019-03-23T00:14:59.785Z,94.23
2019-03-23T00:15:59.966Z,94.79
2019-03-23T00:17:00.945Z,94.79
2019-03-23T00:18:00.285Z,94.70
2019-03-23T00:19:00.466Z,94.51
2019-03-23T00:20:00.652Z,94.79
2019-03-23T00:21:00.833Z,94.51
2019-03-23T00:22:01.014Z,94.70
2019-03-23T00:23:01.200Z,94.79
2019-03-23T00:24:01.386Z,94.70
2019-03-23T00:25:02.436Z,94.89
2019-03-23T00:26:01.746Z,95.27
2019-03-23T00:27:01.928Z,95.17
2019-03-23T00:28:02.116Z,95.08
2019-03-23T00:29:02.305Z,95.36
2019-03-23T00:30:03.433Z,95.46
2019-03-23T00:31:02.663Z,95.46
2019-03-23T00:32:02.841Z,95.36
2019-03-23T00:33:03.026Z,95.08
2019-03-23T00:34:03.209Z,95.08
2019-03-23T00:35:03.387Z,95.65
2019-03-23T00:36:03.568Z,95.46
2019-03-23T00:37:03.753Z,95.27
2019-03-23T00:38:03.940Z,95.27
2019-03-23T00:39:04.131Z,95.46
2019-03-23T00:40:04.308Z,95.27
2019-03-23T00:41:04.498Z,95.36
2019-03-23T00:42:04.691Z,94.89
2019-03-23T00:43:04.880Z,94.79
2019-03-23T00:44:07.353Z,94.79
2019-03-23T00:45:05.235Z,95.08
2019-03-23T00:46:05.419Z,95.17
2019-03-23T00:47:05.607Z,95.55
2019-03-23T00:48:05.788Z,95.65
2019-03-23T00:49:05.971Z,95.46
2019-03-23T00:50:06.154Z,96.22
2019-03-23T00:51:06.337Z,96.41
2019-03-23T00:52:06.526Z,95.55
2019-03-23T00:53:06.706Z,96.22
2019-03-23T00:54:06.889Z,96.03
2019-03-23T00:55:07.080Z,95.55
2019-03-23T00:56:07.266Z,95.46
2019-03-23T00:57:07.447Z,96.03
2019-03-23T00:58:07.632Z,96.12
2019-03-23T00:59:07.813Z,96.03
2019-03-23T01:00:07.995Z,96.03
2019-03-23T01:01:08.181Z,95.98
2019-03-23T01:02:08.361Z,96.03
2019-03-23T01:03:08.556Z,95.94
2019-03-23T01:04:09.096Z,95.75
2019-03-23T01:05:08.900Z,95.84
2019-03-23T01:06:09.089Z,95.70
2019-03-23T01:07:09.271Z,96.03
2019-03-23T01:08:09.461Z,95.84
2019-03-23T01:09:09.641Z,96.03
2019-03-23T01:10:09.823Z,96.17
2019-03-23T01:11:10.003Z,96.08
2019-03-23T01:12:10.185Z,95.60
2019-03-23T01:13:10.367Z,95.98
2019-03-23T01:14:10.551Z,96.79
2019-03-23T01:15:10.747Z,96.64
2019-03-23T01:16:10.917Z,96.55
2019-03-23T01:17:11.094Z,96.55
2019-03-23T01:18:11.276Z,96.45
2019-03-23T01:19:11.467Z,96.74
2019-03-23T01:20:11.649Z,96.55
2019-03-23T01:21:11.834Z,96.55
2019-03-23T01:22:12.017Z,96.55
2019-03-23T01:23:12.197Z,96.74
2019-03-23T01:24:12.381Z,96.64
2019-03-23T01:25:12.567Z,96.83
2019-03-23T01:26:12.861Z,96.74
2019-03-23T01:27:12.941Z,96.55
2019-03-23T01:28:13.136Z,95.70
2019-03-23T01:29:13.315Z,95.79
2019-03-23T01:30:13.510Z,95.89
2019-03-23T01:31:13.675Z,96.74
2019-03-23T01:32:13.864Z,96.55
2019-03-23T01:33:14.043Z,96.55
2019-03-23T01:34:14.230Z,97.50
2019-03-23T01:35:14.415Z,97.02
2019-03-23T01:36:14.595Z,97.31
2019-03-23T01:37:14.775Z,97.88
2019-03-23T01:38:14.964Z,97.60
2019-03-23T01:39:15.136Z,97.69
2019-03-23T01:40:15.376Z,97.50
2019-03-23T01:41:15.506Z,97.50
2019-03-23T01:42:15.686Z,97.41
2019-03-23T01:43:15.872Z,97.12
2019-03-23T01:44:16.057Z,97.50
2019-03-23T01:45:16.246Z,97.12
2019-03-23T01:46:16.427Z,96.74
2019-03-23T01:47:16.610Z,97.12
2019-03-23T01:48:16.789Z,97.02
2019-03-23T01:49:16.972Z,96.74
2019-03-23T01:50:17.161Z,97.12
2019-03-23T01:51:17.343Z,96.93
2019-03-23T01:52:17.532Z,96.93
2019-03-23T01:53:17.727Z,96.64
2019-03-23T01:54:17.907Z,96.64
2019-03-23T01:55:18.090Z,96.88
2019-03-23T01:56:18.268Z,96.74
2019-03-23T01:57:18.453Z,97.26
2019-03-23T01:58:18.639Z,96.45
2019-03-23T01:59:18.819Z,96.64
2019-03-23T02:00:19.000Z,96.50
2019-03-23T02:01:19.189Z,96.69
2019-03-23T02:02:19.372Z,96.50
2019-03-23T02:03:19.551Z,96.41
2019-03-23T02:04:19.736Z,96.59
2019-03-23T02:05:19.920Z,96.59
2019-03-23T02:06:20.118Z,96.69
2019-03-23T02:07:20.314Z,96.59
2019-03-23T02:08:20.489Z,96.69
2019-03-23T02:09:20.676Z,97.26
2019-03-23T02:10:20.862Z,96.97
2019-03-23T02:11:21.031Z,96.69
2019-03-23T02:12:21.215Z,96.78
2019-03-23T02:13:21.402Z,96.97
2019-03-23T02:14:21.578Z,97.26
2019-03-23T02:15:21.767Z,97.26
2019-03-23T02:16:21.949Z,97.17
2019-03-23T02:17:22.123Z,97.64
2019-03-23T02:18:22.300Z,97.55
2019-03-23T02:19:22.486Z,97.36
2019-03-23T02:20:22.669Z,97.83
2019-03-23T02:21:22.847Z,97.74
2019-03-23T02:22:23.033Z,97.45
2019-03-23T02:23:23.213Z,97.45
2019-03-23T02:24:23.397Z,97.55
2019-03-23T02:25:23.580Z,97.17
2019-03-23T02:26:23.766Z,97.45
2019-03-23T02:27:23.945Z,97.83
2019-03-23T02:28:24.129Z,98.02
2019-03-23T02:29:24.308Z,98.02
2019-03-23T02:30:24.489Z,98.30
2019-03-23T02:31:24.676Z,98.73
2019-03-23T02:32:24.847Z,98.68
2019-03-23T02:33:25.040Z,98.35
2019-03-23T02:34:25.230Z,98.49
2019-03-23T02:35:25.398Z,97.88
2019-03-23T02:36:25.581Z,97.97
2019-03-23T02:37:28.081Z,98.16
2019-03-23T02:38:25.943Z,98.63
2019-03-23T02:39:26.136Z,98.54
2019-03-23T02:40:26.305Z,98.82
2019-03-23T02:41:26.487Z,98.92
2019-03-23T02:42:26.677Z,98.63
2019-03-23T02:43:26.857Z,98.54
2019-03-23T02:44:27.053Z,98.63
2019-03-23T02:45:30.121Z,98.35
2019-03-23T02:46:27.413Z,98.82
2019-03-23T02:47:27.605Z,98.73
2019-03-23T02:48:27.783Z,99.11
2019-03-23T02:49:27.979Z,99.77
2019-03-23T02:50:28.159Z,99.68
2019-03-23T02:51:28.342Z,99.39
2019-03-23T02:52:28.532Z,99.01
2019-03-23T02:53:28.716Z,98.82
2019-03-23T02:54:28.903Z,98.73
2019-03-23T02:55:29.084Z,98.54
2019-03-23T02:56:29.269Z,98.44
2019-03-23T02:57:29.447Z,98.92
2019-03-23T02:58:29.628Z,98.73
2019-03-23T02:59:29.821Z,98.54
2019-03-23T03:00:30.001Z,99.49
2019-03-23T03:01:30.177Z,99.30
2019-03-23T03:02:30.380Z,99.68
2019-03-23T03:03:30.554Z,99.39
2019-03-23T03:04:30.736Z,99.49
2019-03-23T03:05:30.933Z,99.39
2019-03-23T03:06:31.119Z,99.20
2019-03-23T03:07:41.934Z,99.99
2019-03-23T03:08:31.481Z,99.68
2019-03-23T03:09:31.652Z,99.68
2019-03-23T03:10:31.835Z,99.68
2019-03-23T03:11:32.030Z,99.68
2019-03-23T03:12:32.202Z,99.99
2019-03-23T03:13:32.397Z,99.87
2019-03-23T03:14:32.579Z,99.99
2019-03-23T03:15:32.755Z,99.58
2019-03-23T03:16:32.952Z,99.99
2019-03-23T03:17:33.127Z,99.68
2019-03-23T03:18:33.307Z,99.99
2019-03-23T03:19:33.491Z,99.99
2019-03-23T03:20:33.681Z,99.99
2019-03-23T03:21:33.849Z,99.99
2019-03-23T03:22:34.048Z,99.99
2019-03-23T03:23:34.229Z,99.99
2019-03-23T03:24:34.404Z,99.99
2019-03-23T03:25:34.585Z,99.99
2019-03-23T03:26:34.774Z,99.99
2019-03-23T03:27:34.953Z,99.99
2019-03-23T03:28:35.138Z,99.99
2019-03-23T03:29:35.319Z,99.99
2019-03-23T03:30:35.529Z,99.99
2019-03-23T03:31:35.695Z,99.99
2019-03-23T03:32:35.874Z,99.99
2019-03-23T03:33:36.057Z,99.99
2019-03-23T03:34:36.304Z,99.99
2019-03-23T03:35:36.421Z,99.99
2019-03-23T03:36:36.603Z,99.99
2019-03-23T03:37:36.791Z,99.99
2019-03-23T03:38:36.973Z,99.58
2019-03-23T03:39:37.148Z,99.68
2019-03-23T03:40:37.343Z,99.99
2019-03-23T03:41:37.516Z,99.68
2019-03-23T03:42:37.698Z,99.77
2019-03-23T03:43:37.873Z,99.68
2019-03-23T03:44:38.057Z,99.99
2019-03-23T03:45:38.244Z,99.99
2019-03-23T03:46:38.421Z,99.99
2019-03-23T03:47:41.246Z,99.99
2019-03-23T03:48:38.782Z,99.99
2019-03-23T03:49:38.964Z,99.99
2019-03-23T03:50:39.161Z,99.99
2019-03-23T03:51:39.344Z,99.99
2019-03-23T03:52:39.524Z,99.99
2019-03-23T03:53:39.696Z,99.99
2019-03-23T03:54:39.874Z,99.99
2019-03-23T03:55:40.062Z,99.99
2019-03-23T03:56:40.243Z,99.99
2019-03-23T03:57:40.430Z,99.99
2019-03-23T03:58:40.613Z,99.99
2019-03-23T03:59:40.801Z,99.99
2019-03-23T04:00:40.992Z,99.99
2019-03-23T04:01:41.173Z,99.99
2019-03-23T04:02:41.367Z,99.99
2019-03-23T04:03:41.535Z,99.99
2019-03-23T04:04:41.715Z,99.99
2019-03-23T04:05:41.894Z,99.99
2019-03-23T04:06:42.082Z,99.99
2019-03-23T04:07:42.259Z,99.99
2019-03-23T04:08:42.443Z,99.99
2019-03-23T04:09:42.644Z,99.99
2019-03-23T04:10:42.801Z,99.99
2019-03-23T04:11:42.986Z,99.99
2019-03-23T04:12:43.172Z,99.99
2019-03-23T04:13:43.364Z,99.99
2019-03-23T04:14:43.537Z,99.99
2019-03-23T04:15:43.732Z,99.99
2019-03-23T04:16:43.900Z,99.99
2019-03-23T04:17:44.092Z,99.99
2019-03-23T04:18:44.269Z,99.99
2019-03-23T04:19:44.448Z,99.99
2019-03-23T04:20:44.629Z,99.99
2019-03-23T04:21:44.815Z,99.99
2019-03-23T04:22:44.998Z,99.99
2019-03-23T04:23:45.183Z,99.99
2019-03-23T04:24:45.380Z,99.99
2019-03-23T04:25:45.561Z,99.99
2019-03-23T04:26:45.748Z,99.99
2019-03-23T04:27:45.940Z,99.99
2019-03-23T04:28:46.130Z,99.99
2019-03-23T04:29:46.297Z,99.99
2019-03-23T04:30:46.482Z,99.99
2019-03-23T04:31:46.665Z,99.99
2019-03-23T04:32:46.852Z,99.99
2019-03-23T04:33:47.031Z,99.99
2019-03-23T04:34:47.211Z,99.99
2019-03-23T04:35:47.395Z,99.99
2019-03-23T04:36:47.573Z,99.99
2019-03-23T04:37:47.745Z,99.99
2019-03-23T04:38:47.942Z,99.99
2019-03-23T04:39:48.116Z,99.99
2019-03-23T04:40:48.293Z,99.99
2019-03-23T04:41:48.478Z,99.99
2019-03-23T04:42:48.655Z,99.99
2019-03-23T04:43:48.837Z,99.99
2019-03-23T04:44:49.019Z,99.99
2019-03-23T04:45:49.202Z,99.99
2019-03-23T04:46:49.380Z,99.99
2019-03-23T04:47:49.561Z,99.99
2019-03-23T04:48:49.744Z,99.99
2019-03-23T04:49:49.929Z,99.99
2019-03-23T04:50:50.120Z,99.99
2019-03-23T04:51:50.298Z,99.99
2019-03-23T04:52:50.487Z,99.99
2019-03-23T04:53:50.668Z,99.99
2019-03-23T04:54:50.854Z,99.99
2019-03-23T04:55:51.038Z,99.99
2019-03-23T04:56:51.214Z,99.99
2019-03-23T04:57:51.397Z,99.99
2019-03-23T04:58:51.583Z,99.99
2019-03-23T04:59:51.787Z,99.99
2019-03-23T05:00:51.953Z,99.99
2019-03-23T05:01:52.125Z,99.99
2019-03-23T05:02:52.309Z,99.99
2019-03-23T05:03:52.488Z,99.99
2019-03-23T05:04:52.687Z,99.99
2019-03-23T05:05:52.881Z,99.99
2019-03-23T05:06:53.059Z,99.99
2019-03-23T05:07:53.233Z,99.99
2019-03-23T05:08:53.416Z,99.99
2019-03-23T05:09:53.598Z,99.99
2019-03-23T05:10:53.780Z,99.99
2019-03-23T05:11:53.962Z,99.99
2019-03-23T05:12:54.143Z,99.99
2019-03-23T05:13:54.322Z,99.99
2019-03-23T05:14:54.504Z,99.99
2019-03-23T05:15:54.689Z,99.99
2019-03-23T05:16:54.864Z,99.99
2019-03-23T05:17:55.046Z,99.99
2019-03-23T05:18:55.234Z,99.99
2019-03-23T05:19:55.406Z,99.99
2019-03-23T05:20:55.592Z,99.99
2019-03-23T05:21:55.818Z,99.99
2019-03-23T05:22:55.949Z,99.99
2019-03-23T05:23:56.135Z,99.99
2019-03-23T05:24:56.317Z,99.99
2019-03-23T05:25:56.503Z,99.99
2019-03-23T05:26:56.679Z,99.99
2019-03-23T05:27:56.862Z,99.99
2019-03-23T05:28:57.037Z,99.99
2019-03-23T05:29:57.218Z,99.99
2019-03-23T05:30:57.403Z,99.99
2019-03-23T05:31:57.584Z,99.99
2019-03-23T05:32:57.764Z,99.99
2019-03-23T05:33:57.941Z,99.99
2019-03-23T05:34:58.126Z,99.99
2019-03-23T05:35:58.308Z,99.99
2019-03-23T05:36:58.490Z,99.99
2019-03-23T05:37:58.666Z,99.99
2019-03-23T05:38:58.851Z,99.99
2019-03-23T05:39:59.031Z,99.99
2019-03-23T05:40:59.236Z,99.99
2019-03-23T05:41:59.406Z,99.99
2019-03-23T05:42:59.589Z,99.99
2019-03-23T05:43:59.769Z,99.44
2019-03-23T05:44:59.951Z,99.72
2019-03-23T05:46:00.130Z,99.25
2019-03-23T05:47:00.320Z,99.44
2019-03-23T05:48:00.494Z,98.11
2019-03-23T05:49:00.679Z,98.49
2019-03-23T05:50:00.863Z,98.39
2019-03-23T05:51:01.042Z,98.39
2019-03-23T05:52:01.610Z,98.68
2019-03-23T05:53:01.416Z,97.78
2019-03-23T05:54:01.599Z,97.97
2019-03-23T05:55:01.785Z,98.25
2019-03-23T05:56:01.959Z,97.40
2019-03-23T05:57:02.141Z,97.50
2019-03-23T05:58:02.324Z,97.02
2019-03-23T05:59:02.503Z,96.31
2019-03-23T06:00:02.684Z,95.93
2019-03-23T06:01:02.872Z,95.74
2019-03-23T06:02:03.055Z,94.93
2019-03-23T06:03:03.239Z,94.84
2019-03-23T06:04:03.421Z,94.56
2019-03-23T06:05:03.601Z,94.65
2019-03-23T06:06:03.791Z,94.84
2019-03-23T06:07:03.971Z,94.98
2019-03-23T06:08:04.156Z,94.79
2019-03-23T06:09:04.327Z,95.03
2019-03-23T06:10:04.530Z,94.79
2019-03-23T06:11:04.716Z,93.51
2019-03-23T06:12:04.904Z,91.84
2019-03-23T06:13:05.081Z,90.03
2019-03-23T06:14:05.269Z,88.84
2019-03-23T06:15:05.455Z,88.18
2019-03-23T06:16:05.655Z,87.03
2019-03-23T06:17:05.841Z,86.36
2019-03-23T06:18:06.033Z,86.88
2019-03-23T06:19:06.225Z,86.07
2019-03-23T06:20:06.411Z,84.45
2019-03-23T06:21:06.597Z,82.87
2019-03-23T06:22:06.783Z,81.10
2019-03-23T06:23:06.970Z,79.99
2019-03-23T06:24:07.161Z,79.43
2019-03-23T06:25:07.350Z,78.81
2019-03-23T06:26:07.542Z,78.37
2019-03-23T06:27:07.729Z,78.33
2019-03-23T06:28:07.908Z,79.44
2019-03-23T06:29:08.104Z,79.91
2019-03-23T06:30:08.294Z,79.57
2019-03-23T06:31:08.483Z,77.70
2019-03-23T06:32:08.682Z,75.93
2019-03-23T06:33:08.870Z,74.44
2019-03-23T06:34:09.053Z,73.48
2019-03-23T06:35:09.247Z,72.05
2019-03-23T06:36:09.439Z,71.61
2019-03-23T06:37:09.634Z,71.95
2019-03-23T06:38:09.831Z,72.14
2019-03-23T06:39:10.027Z,73.54
2019-03-23T06:40:10.219Z,74.65
2019-03-23T06:41:10.410Z,75.22
2019-03-23T06:42:10.599Z,76.14
2019-03-23T06:43:10.805Z,77.09
2019-03-23T06:44:11.004Z,76.23
2019-03-23T06:45:11.197Z,76.14
2019-03-23T06:46:11.393Z,77.47
2019-03-23T06:47:11.590Z,77.57
2019-03-23T06:48:11.794Z,77.57
2019-03-23T06:49:11.980Z,76.75
2019-03-23T06:50:12.179Z,75.54
2019-03-23T06:51:12.373Z,74.05
2019-03-23T06:52:12.568Z,73.39
2019-03-23T06:53:12.756Z,73.73
2019-03-23T06:54:12.947Z,74.55
2019-03-23T06:55:13.150Z,75.35
2019-03-23T06:56:13.346Z,74.78
2019-03-23T06:57:13.541Z,75.42
2019-03-23T06:58:13.737Z,75.98
2019-03-23T06:59:13.931Z,76.94
2019-03-23T07:00:14.126Z,75.64
2019-03-23T07:01:14.327Z,75.45
2019-03-23T07:02:14.520Z,74.73
2019-03-23T07:03:14.713Z,74.53
2019-03-23T07:04:14.910Z,74.05
2019-03-23T07:05:15.104Z,74.40
2019-03-23T07:06:15.299Z,73.86
2019-03-23T07:07:15.517Z,73.33
2019-03-23T07:08:15.717Z,72.47
2019-03-23T07:09:16.626Z,71.32
2019-03-23T07:10:16.116Z,72.18
2019-03-23T07:11:16.294Z,73.00
2019-03-23T07:12:16.499Z,73.92
2019-03-23T07:13:16.706Z,75.70
2019-03-23T07:14:16.879Z,76.27
2019-03-23T07:15:20.311Z,76.84
2019-03-23T07:16:17.268Z,77.03
2019-03-23T07:17:18.011Z,77.47
2019-03-23T07:18:17.660Z,78.14
2019-03-23T07:19:17.847Z,78.91
2019-03-23T07:20:18.054Z,77.70
2019-03-23T07:21:18.248Z,76.98
2019-03-23T07:22:18.442Z,75.93
2019-03-23T07:23:18.642Z,75.98
2019-03-23T07:24:19.509Z,76.56
2019-03-23T07:25:19.038Z,77.61
2019-03-23T07:26:20.010Z,76.84
2019-03-23T07:27:20.019Z,76.69
2019-03-23T07:28:19.609Z,75.54
2019-03-23T07:29:19.807Z,75.35
2019-03-23T07:30:20.000Z,75.74
2019-03-23T07:31:20.194Z,75.54
2019-03-23T07:32:20.407Z,75.78
2019-03-23T07:33:20.592Z,74.76
2019-03-23T07:34:20.792Z,73.90
2019-03-23T07:35:20.991Z,73.14
2019-03-23T07:36:21.184Z,73.43
2019-03-23T07:37:21.386Z,74.59
2019-03-23T07:38:21.571Z,75.45
2019-03-23T07:39:28.029Z,76.03
2019-03-23T07:40:21.987Z,75.54
2019-03-23T07:41:22.182Z,75.78
2019-03-23T07:42:22.377Z,75.10
2019-03-23T07:43:23.521Z,73.99
2019-03-23T07:44:22.751Z,72.37
2019-03-23T07:45:22.948Z,72.28
2019-03-23T07:46:23.142Z,72.02
2019-03-23T07:47:23.346Z,71.16
2019-03-23T07:48:23.530Z,70.53
2019-03-23T07:49:23.733Z,70.53
2019-03-23T07:50:23.931Z,70.24
2019-03-23T07:51:24.123Z,70.59
2019-03-23T07:52:24.317Z,70.40
2019-03-23T07:53:24.510Z,71.39
2019-03-23T07:54:24.700Z,71.01
2019-03-23T07:55:24.898Z,70.24
2019-03-23T07:56:25.094Z,69.09
2019-03-23T07:57:25.293Z,68.62
2019-03-23T07:58:25.485Z,69.38
2019-03-23T07:59:25.681Z,70.05
2019-03-23T08:00:25.876Z,69.38
2019-03-23T08:01:26.085Z,69.19
2019-03-23T08:02:26.279Z,69.13
2019-03-23T08:03:26.476Z,69.42
2019-03-23T08:04:26.686Z,69.13
2019-03-23T08:05:26.878Z,68.65
2019-03-23T08:06:27.073Z,69.23
2019-03-23T08:07:27.268Z,69.13
2019-03-23T08:08:27.461Z,69.32
2019-03-23T08:09:37.393Z,69.95
2019-03-23T08:10:27.869Z,70.53
2019-03-23T08:11:28.065Z,70.56
2019-03-23T08:12:28.263Z,70.18
2019-03-23T08:13:28.546Z,69.17
2019-03-23T08:14:28.669Z,67.47
2019-03-23T08:15:28.885Z,67.09
2019-03-23T08:16:29.082Z,66.96
2019-03-23T08:17:29.274Z,67.54
2019-03-23T08:18:29.469Z,68.78
2019-03-23T08:19:29.663Z,67.91
2019-03-23T08:20:29.866Z,67.82
2019-03-23T08:21:30.054Z,66.58
2019-03-23T08:22:30.269Z,66.51
2019-03-23T08:23:30.473Z,66.74
2019-03-23T08:24:30.663Z,64.82
2019-03-23T08:25:30.864Z,64.34
2019-03-23T08:26:31.060Z,65.78
2019-03-23T08:27:31.258Z,66.06
2019-03-23T08:28:32.498Z,67.02
2019-03-23T08:29:31.652Z,65.62
2019-03-23T08:30:31.852Z,64.66
2019-03-23T08:31:32.054Z,65.49
2019-03-23T08:32:32.251Z,65.97
2019-03-23T08:33:32.450Z,65.81
2019-03-23T08:34:32.644Z,65.08
2019-03-23T08:35:32.843Z,64.98
2019-03-23T08:36:33.040Z,64.69
2019-03-23T08:37:33.290Z,65.17
2019-03-23T08:38:33.432Z,64.69
2019-03-23T08:39:33.630Z,65.75
2019-03-23T08:40:35.665Z,64.76
2019-03-23T08:41:34.025Z,64.22
2019-03-23T08:42:35.051Z,63.64
2019-03-23T08:43:34.424Z,63.54
2019-03-23T08:44:34.627Z,63.09
2019-03-23T08:45:34.829Z,63.57
2019-03-23T08:46:35.023Z,63.89
2019-03-23T08:47:35.225Z,64.56
2019-03-23T08:48:35.425Z,65.05
2019-03-23T08:49:35.622Z,65.17
2019-03-23T08:50:35.824Z,64.89
2019-03-23T08:51:36.025Z,64.31
2019-03-23T08:52:36.223Z,65.52
2019-03-23T08:53:36.422Z,66.19
2019-03-23T08:54:36.619Z,66.19
2019-03-23T08:55:36.820Z,66.00
2019-03-23T08:56:37.498Z,67.16
2019-03-23T08:57:37.219Z,66.67
2019-03-23T08:58:37.416Z,66.13
2019-03-23T08:59:37.621Z,65.78
2019-03-23T09:00:37.818Z,64.92
2019-03-23T09:01:38.015Z,63.96
2019-03-23T09:02:38.210Z,64.18
2019-03-23T09:03:38.414Z,63.41
2019-03-23T09:04:38.609Z,63.70
2019-03-23T09:05:38.809Z,63.19
2019-03-23T09:06:39.008Z,63.48
2019-03-23T09:07:39.198Z,63.57
2019-03-23T09:08:39.398Z,63.22
2019-03-23T09:09:39.599Z,63.57
2019-03-23T09:10:39.790Z,64.25
2019-03-23T09:11:39.984Z,64.79
2019-03-23T09:12:40.191Z,65.14
2019-03-23T09:13:41.021Z,66.00
2019-03-23T09:14:40.600Z,66.33
2019-03-23T09:15:40.821Z,65.17
2019-03-23T09:16:41.007Z,65.08
2019-03-23T09:17:41.212Z,66.42
2019-03-23T09:18:41.411Z,65.11
2019-03-23T09:19:41.613Z,63.48
2019-03-23T09:20:41.812Z,62.13
2019-03-23T09:21:41.993Z,61.17
2019-03-23T09:22:42.199Z,62.16
2019-03-23T09:23:42.399Z,60.46
2019-03-23T09:24:42.589Z,60.56
2019-03-23T09:25:42.804Z,61.01
2019-03-23T09:26:43.018Z,61.84
2019-03-23T09:27:43.216Z,61.68
2019-03-23T09:28:43.409Z,62.26
2019-03-23T09:29:43.613Z,62.35
2019-03-23T09:30:43.821Z,61.75
2019-03-23T09:31:44.015Z,62.71
2019-03-23T09:32:44.209Z,62.71
2019-03-23T09:33:44.417Z,61.78
2019-03-23T09:34:44.621Z,60.94
2019-03-23T09:35:44.816Z,59.82
2019-03-23T09:36:45.020Z,59.63
2019-03-23T09:37:45.215Z,58.76
2019-03-23T09:38:45.416Z,57.83
2019-03-23T09:39:45.621Z,57.95
2019-03-23T09:40:45.817Z,58.08
2019-03-23T09:41:46.017Z,57.95
2019-03-23T09:42:46.212Z,57.47
2019-03-23T09:43:46.414Z,57.40
2019-03-23T09:44:46.617Z,57.02
2019-03-23T09:45:46.830Z,57.69
2019-03-23T09:46:47.025Z,57.12
2019-03-23T09:47:47.229Z,58.05
2019-03-23T09:48:47.415Z,58.75
2019-03-23T09:49:47.615Z,57.40
2019-03-23T09:50:47.816Z,57.21
2019-03-23T09:51:48.022Z,56.63
2019-03-23T09:52:48.224Z,56.90
2019-03-23T09:53:48.420Z,56.73
2019-03-23T09:54:48.647Z,57.02
2019-03-23T09:55:48.822Z,57.60
2019-03-23T09:56:49.031Z,57.62
2019-03-23T09:57:49.228Z,57.31
2019-03-23T09:58:49.434Z,57.02
2019-03-23T09:59:49.636Z,56.37
2019-03-23T10:00:49.836Z,54.93
2019-03-23T10:01:50.035Z,55.02
2019-03-23T10:02:50.254Z,55.05
2019-03-23T10:03:50.436Z,54.79
2019-03-23T10:04:50.646Z,54.50
2019-03-23T10:05:50.852Z,53.05
2019-03-23T10:06:51.040Z,53.51
2019-03-23T10:07:51.239Z,53.83
2019-03-23T10:08:51.444Z,54.35
2019-03-23T10:09:51.642Z,54.64
2019-03-23T10:10:51.838Z,55.54
2019-03-23T10:11:52.036Z,53.58
2019-03-23T10:12:52.237Z,53.87
2019-03-23T10:13:52.440Z,53.34
2019-03-23T10:14:52.646Z,54.31
2019-03-23T10:15:52.839Z,54.11
2019-03-23T10:16:53.041Z,53.92
2019-03-23T10:17:53.241Z,51.61
2019-03-23T10:18:53.445Z,52.98
2019-03-23T10:19:53.648Z,53.17
2019-03-23T10:20:53.852Z,54.43
2019-03-23T10:21:54.050Z,52.59
2019-03-23T10:22:54.255Z,53.44
2019-03-23T10:23:54.648Z,52.37
2019-03-23T10:24:54.650Z,51.58
2019-03-23T10:25:54.849Z,51.12
2019-03-23T10:26:55.049Z,50.35
2019-03-23T10:27:55.257Z,50.16
2019-03-23T10:28:55.451Z,50.26
2019-03-23T10:29:55.659Z,49.96
2019-03-23T10:30:55.867Z,50.18
2019-03-23T10:31:56.066Z,50.89
2019-03-23T10:32:56.265Z,50.59
2019-03-23T10:33:56.471Z,49.92
2019-03-23T10:34:56.675Z,49.96
2019-03-23T10:35:56.874Z,51.99
2019-03-23T10:36:57.597Z,51.41
2019-03-23T10:37:58.086Z,52.11
2019-03-23T10:38:57.501Z,50.96
2019-03-23T10:39:57.698Z,50.16
2019-03-23T10:40:57.893Z,51.61
2019-03-23T10:41:58.099Z,51.43
2019-03-23T10:43:00.086Z,53.27
2019-03-23T10:43:58.487Z,53.67
2019-03-23T10:44:58.689Z,52.97
2019-03-23T10:45:58.900Z,55.16
2019-03-23T10:47:00.101Z,55.19
2019-03-23T10:47:59.326Z,53.89
2019-03-23T10:48:59.531Z,52.01
2019-03-23T10:49:59.741Z,51.44
2019-03-23T10:50:59.947Z,50.21
2019-03-23T10:52:00.141Z,50.35
2019-03-23T10:53:00.347Z,50.28
2019-03-23T10:54:00.548Z,50.21
2019-03-23T10:55:00.758Z,50.31
2019-03-23T10:56:00.956Z,49.53
2019-03-23T10:57:01.160Z,49.65
2019-03-23T10:58:01.363Z,49.15
2019-03-23T10:59:01.562Z,51.58
2019-03-23T11:00:01.765Z,53.00
2019-03-23T11:01:01.969Z,53.65
2019-03-23T11:02:02.167Z,54.58
2019-03-23T11:03:02.364Z,54.52
2019-03-23T11:04:02.564Z,53.89
2019-03-23T11:05:02.767Z,52.97
2019-03-23T11:06:02.968Z,53.87
2019-03-23T11:07:03.164Z,51.44
2019-03-23T11:08:03.369Z,50.16
2019-03-23T11:09:03.570Z,50.18
2019-03-23T11:10:03.775Z,49.60
2019-03-23T11:11:03.971Z,49.90
2019-03-23T11:12:04.176Z,49.82
2019-03-23T11:13:04.366Z,50.40
2019-03-23T11:14:04.595Z,49.82
2019-03-23T11:15:04.772Z,49.24
2019-03-23T11:16:04.973Z,48.97
2019-03-23T11:17:05.178Z,48.69
2019-03-23T11:18:05.372Z,49.49
2019-03-23T11:19:13.343Z,48.25
2019-03-23T11:20:05.772Z,47.45
2019-03-23T11:21:05.976Z,47.65
2019-03-23T11:22:06.176Z,47.91
2019-03-23T11:23:06.373Z,48.69
2019-03-23T11:24:06.578Z,48.88
2019-03-23T11:25:06.778Z,49.65
2019-03-23T11:26:06.975Z,49.85
2019-03-23T11:27:07.176Z,49.73
2019-03-23T11:28:07.382Z,51.07
2019-03-23T11:29:08.483Z,49.49
2019-03-23T11:30:07.785Z,48.13
2019-03-23T11:31:07.982Z,47.94
2019-03-23T11:32:08.187Z,47.86
2019-03-23T11:33:08.398Z,47.79
2019-03-23T11:34:17.564Z,47.02
2019-03-23T11:35:08.812Z,46.46
2019-03-23T11:36:09.000Z,46.61
2019-03-23T11:37:09.254Z,47.16
2019-03-23T11:38:09.403Z,47.28
2019-03-23T11:39:09.609Z,47.28
2019-03-23T11:40:09.816Z,47.67
2019-03-23T11:41:10.020Z,48.21
2019-03-23T11:42:10.249Z,48.97
2019-03-23T11:43:10.425Z,48.79
2019-03-23T11:44:10.626Z,48.90
2019-03-23T11:45:10.831Z,49.00
2019-03-23T11:46:11.022Z,47.33
2019-03-23T11:47:11.224Z,47.38
2019-03-23T11:48:11.435Z,46.25
2019-03-23T11:49:11.630Z,46.44
2019-03-23T11:50:11.828Z,46.15
2019-03-23T11:51:12.022Z,47.09
2019-03-23T11:52:12.225Z,46.30
2019-03-23T11:53:12.422Z,47.14
2019-03-23T11:54:12.624Z,48.30
2019-03-23T11:55:12.821Z,49.53
2019-03-23T11:56:13.021Z,48.79
2019-03-23T11:57:13.223Z,49.58
2019-03-23T11:58:13.424Z,49.02
2019-03-23T11:59:13.623Z,47.96
2019-03-23T12:00:13.821Z,47.50
2019-03-23T12:01:14.022Z,47.28
2019-03-23T12:02:14.228Z,46.12
2019-03-23T12:03:14.428Z,45.49
2019-03-23T12:04:14.615Z,44.35
2019-03-23T12:05:14.816Z,44.89
2019-03-23T12:06:15.021Z,46.20
2019-03-23T12:07:15.255Z,47.36
2019-03-23T12:08:15.453Z,47.63
2019-03-23T12:09:15.648Z,48.74
2019-03-23T12:10:15.861Z,48.66
2019-03-23T12:11:16.061Z,51.12
2019-03-23T12:12:16.252Z,50.93
2019-03-23T12:13:16.458Z,50.81
2019-03-23T12:14:16.651Z,53.03
2019-03-23T12:15:16.853Z,53.89
2019-03-23T12:16:17.051Z,52.83
2019-03-23T12:17:17.262Z,52.83
2019-03-23T12:18:17.447Z,51.82
2019-03-23T12:19:17.667Z,53.27
2019-03-23T12:20:17.853Z,54.32
2019-03-23T12:21:18.051Z,55.07
2019-03-23T12:22:18.251Z,54.71
2019-03-23T12:23:18.448Z,52.93
2019-03-23T12:24:18.646Z,53.48
2019-03-23T12:25:18.853Z,53.58
2019-03-23T12:26:19.135Z,54.16
2019-03-23T12:27:19.206Z,55.57
2019-03-23T12:28:19.410Z,55.00
2019-03-23T12:29:19.606Z,54.93
2019-03-23T12:30:19.801Z,54.06
2019-03-23T12:31:20.003Z,53.84
2019-03-23T12:32:20.195Z,53.74
2019-03-23T12:33:21.495Z,53.84
2019-03-23T12:34:20.587Z,54.78
2019-03-23T12:35:20.780Z,55.33
2019-03-23T12:36:20.982Z,56.67
2019-03-23T12:37:21.176Z,57.18
2019-03-23T12:38:21.373Z,56.73
2019-03-23T12:39:21.563Z,56.63
2019-03-23T12:40:21.756Z,54.71
2019-03-23T12:41:25.174Z,54.85
2019-03-23T12:42:30.151Z,56.29
2019-03-23T12:43:23.149Z,55.83
2019-03-23T12:45:22.791Z,55.38
2019-03-23T12:46:48.557Z,55.00
2019-03-23T12:47:23.133Z,54.25
2019-03-23T12:48:23.332Z,55.77
2019-03-23T12:49:23.521Z,54.80
2019-03-23T12:50:23.715Z,53.19
2019-03-23T12:51:23.912Z,53.55
2019-03-23T12:52:24.107Z,53.58
2019-03-23T12:53:24.289Z,53.39
2019-03-23T12:54:24.492Z,53.70
2019-03-23T12:55:24.677Z,53.48
2019-03-23T12:56:24.872Z,53.94